sensor_id;sensor_type;location;lat;lon;timestamp;temperature;humidity
1534;DHT22;760;48.822;9.304;2023-05-15T04:04:11;11.40;99.90
1534;DHT22;760;48.822;9.304;2023-05-15T04:06:37;11.50;99.90
1534;DHT22;760;48.822;9.304;2023-05-15T04:09:02;11.50;99.90
1534;DHT22;760;48.822;9.304;2023-05-15T04:11:28;11.60;99.90
1534;DHT22;760;48.822;9.304;2023-05-15T04:13:53;11.60;99.90
1534;DHT22;760;48.822;9.304;2023-05-15T04:16:19;11.70;99.90
1534;DHT22;760;48.822;9.304;2023-05-15T04:18:44;11.80;99.90
1534;DHT22;760;48.822;9.304;2023-05-15T04:21:10;11.90;99.90
1534;DHT22;760;48.822;9.304;2023-05-15T04:23:35;12.00;99.90
1534;DHT22;760;48.822;9.304;2023-05-15T04:26:01;12.10;99.90
1534;DHT22;760;48.822;9.304;2023-05-15T04:28:27;12.30;99.90
1534;DHT22;760;48.822;9.304;2023-05-15T04:30:52;12.50;99.90
1534;DHT22;760;48.822;9.304;2023-05-15T04:33:18;12.70;99.90
1534;DHT22;760;48.822;9.304;2023-05-15T04:35:43;12.90;99.90
1534;DHT22;760;48.822;9.304;2023-05-15T04:38:09;13.10;99.90
1534;DHT22;760;48.822;9.304;2023-05-15T04:40:35;13.30;99.90
1534;DHT22;760;48.822;9.304;2023-05-15T04:43:00;13.60;99.90
1534;DHT22;760;48.822;9.304;2023-05-15T04:45:28;13.90;99.90
1534;DHT22;760;48.822;9.304;2023-05-15T04:47:53;14.10;99.90
1534;DHT22;760;48.822;9.304;2023-05-15T04:50:19;14.30;99.90
1534;DHT22;760;48.822;9.304;2023-05-15T04:52:45;14.50;99.90
1534;DHT22;760;48.822;9.304;2023-05-15T04:55:10;14.70;99.90
1534;DHT22;760;48.822;9.304;2023-05-15T04:57:36;14.70;99.90
1534;DHT22;760;48.822;9.304;2023-05-15T05:00:02;14.90;99.90
1534;DHT22;760;48.822;9.304;2023-05-15T05:02:30;14.90;99.90
1534;DHT22;760;48.822;9.304;2023-05-15T05:04:55;14.90;99.90
1534;DHT22;760;48.822;9.304;2023-05-15T05:07:21;14.90;99.90
1534;DHT22;760;48.822;9.304;2023-05-15T05:09:46;14.90;99.90
1534;DHT22;760;48.822;9.304;2023-05-15T05:12:12;14.70;99.90
1534;DHT22;760;48.822;9.304;2023-05-15T05:14:38;14.70;99.90
1534;DHT22;760;48.822;9.304;2023-05-15T05:17:06;14.70;99.90
1534;DHT22;760;48.822;9.304;2023-05-15T05:19:31;14.60;99.90
1534;DHT22;760;48.822;9.304;2023-05-15T05:21:57;14.60;99.90
1534;DHT22;760;48.822;9.304;2023-05-15T05:24:25;14.60;99.90
1534;DHT22;760;48.822;9.304;2023-05-15T05:26:51;14.60;99.90
1534;DHT22;760;48.822;9.304;2023-05-15T05:29:16;14.70;99.90
1534;DHT22;760;48.822;9.304;2023-05-15T05:31:42;14.70;99.90
1534;DHT22;760;48.822;9.304;2023-05-15T05:34:10;14.70;99.90
1534;DHT22;760;48.822;9.304;2023-05-15T05:36:35;14.70;99.90
1534;DHT22;760;48.822;9.304;2023-05-15T05:39:01;14.70;99.90
1534;DHT22;760;48.822;9.304;2023-05-15T05:41:28;14.70;99.90
1534;DHT22;760;48.822;9.304;2023-05-15T05:43:54;14.70;99.90
1534;DHT22;760;48.822;9.304;2023-05-15T05:46:19;14.70;99.90
1534;DHT22;760;48.822;9.304;2023-05-15T05:48:45;14.70;99.90
1534;DHT22;760;48.822;9.304;2023-05-15T05:51:11;14.80;99.90
1534;DHT22;760;48.822;9.304;2023-05-15T05:53:36;14.90;99.90
1534;DHT22;760;48.822;9.304;2023-05-15T05:56:02;15.00;99.90
1534;DHT22;760;48.822;9.304;2023-05-15T05:58:27;15.10;99.90
1534;DHT22;760;48.822;9.304;2023-05-15T06:00:53;15.10;99.90
1534;DHT22;760;48.822;9.304;2023-05-15T06:03:19;15.10;99.90
1534;DHT22;760;48.822;9.304;2023-05-15T06:05:45;15.00;99.90
1534;DHT22;760;48.822;9.304;2023-05-15T06:08:11;15.00;99.90
1534;DHT22;760;48.822;9.304;2023-05-15T06:10:36;14.90;99.90
1534;DHT22;760;48.822;9.304;2023-05-15T06:13:02;15.00;99.90
1534;DHT22;760;48.822;9.304;2023-05-15T06:15:27;15.10;99.90
1534;DHT22;760;48.822;9.304;2023-05-15T06:17:53;15.30;99.90
1534;DHT22;760;48.822;9.304;2023-05-15T06:20:19;15.50;99.90
1534;DHT22;760;48.822;9.304;2023-05-15T06:22:44;15.60;99.90
1534;DHT22;760;48.822;9.304;2023-05-15T06:25:10;15.70;99.90
1534;DHT22;760;48.822;9.304;2023-05-15T06:27:39;15.80;99.90
1534;DHT22;760;48.822;9.304;2023-05-15T06:30:06;16.00;99.90
1534;DHT22;760;48.822;9.304;2023-05-15T06:32:32;16.10;99.90
1534;DHT22;760;48.822;9.304;2023-05-15T06:34:58;16.30;99.90
1534;DHT22;760;48.822;9.304;2023-05-15T06:37:23;16.40;99.90
1534;DHT22;760;48.822;9.304;2023-05-15T06:39:49;16.50;99.90
1534;DHT22;760;48.822;9.304;2023-05-15T06:42:15;16.70;99.90
1534;DHT22;760;48.822;9.304;2023-05-15T06:44:40;16.90;99.90
1534;DHT22;760;48.822;9.304;2023-05-15T06:47:06;17.00;99.90
1534;DHT22;760;48.822;9.304;2023-05-15T06:49:31;17.10;99.90
1534;DHT22;760;48.822;9.304;2023-05-15T06:51:57;17.10;99.90
1534;DHT22;760;48.822;9.304;2023-05-15T06:54:26;17.10;99.90
1534;DHT22;760;48.822;9.304;2023-05-15T06:56:51;17.20;99.90
1534;DHT22;760;48.822;9.304;2023-05-15T06:59:17;17.30;99.90
1534;DHT22;760;48.822;9.304;2023-05-15T07:01:43;17.20;99.90
1534;DHT22;760;48.822;9.304;2023-05-15T07:04:08;17.40;99.90
1534;DHT22;760;48.822;9.304;2023-05-15T07:06:34;17.50;99.90
1534;DHT22;760;48.822;9.304;2023-05-15T07:09:00;17.50;99.90
1534;DHT22;760;48.822;9.304;2023-05-15T07:11:27;17.60;99.90
1534;DHT22;760;48.822;9.304;2023-05-15T07:13:53;17.80;99.90
1534;DHT22;760;48.822;9.304;2023-05-15T07:16:19;18.00;99.90
1534;DHT22;760;48.822;9.304;2023-05-15T07:18:45;18.10;99.90
1534;DHT22;760;48.822;9.304;2023-05-15T07:21:11;18.20;99.90
1534;DHT22;760;48.822;9.304;2023-05-15T07:23:36;18.10;99.90
1534;DHT22;760;48.822;9.304;2023-05-15T07:26:02;18.30;99.90
1534;DHT22;760;48.822;9.304;2023-05-15T07:28:28;18.60;99.90
1534;DHT22;760;48.822;9.304;2023-05-15T07:30:53;18.90;99.90
1534;DHT22;760;48.822;9.304;2023-05-15T07:33:19;19.20;99.90
1534;DHT22;760;48.822;9.304;2023-05-15T07:35:44;19.60;99.90
1534;DHT22;760;48.822;9.304;2023-05-15T07:38:10;20.00;99.90
1534;DHT22;760;48.822;9.304;2023-05-15T07:40:36;20.60;99.90
1534;DHT22;760;48.822;9.304;2023-05-15T07:43:01;21.20;99.90
1534;DHT22;760;48.822;9.304;2023-05-15T07:45:27;22.10;99.90
1534;DHT22;760;48.822;9.304;2023-05-15T07:47:53;23.10;99.20
1534;DHT22;760;48.822;9.304;2023-05-15T07:50:19;24.20;98.00
1534;DHT22;760;48.822;9.304;2023-05-15T07:52:45;25.40;95.30
1534;DHT22;760;48.822;9.304;2023-05-15T07:55:11;25.50;92.80
1534;DHT22;760;48.822;9.304;2023-05-15T07:57:37;25.10;92.20
1534;DHT22;760;48.822;9.304;2023-05-15T08:00:05;25.40;92.60
1534;DHT22;760;48.822;9.304;2023-05-15T08:02:35;26.00;92.10
1534;DHT22;760;48.822;9.304;2023-05-15T08:05:01;27.00;91.20
1534;DHT22;760;48.822;9.304;2023-05-15T08:07:27;28.00;89.10
1534;DHT22;760;48.822;9.304;2023-05-15T08:09:52;28.70;87.60
1534;DHT22;760;48.822;9.304;2023-05-15T08:12:20;29.10;82.30
1534;DHT22;760;48.822;9.304;2023-05-15T08:14:53;28.90;82.50
1534;DHT22;760;48.822;9.304;2023-05-15T08:17:20;29.00;81.50
1534;DHT22;760;48.822;9.304;2023-05-15T08:19:46;29.00;79.50
1534;DHT22;760;48.822;9.304;2023-05-15T08:22:12;29.30;80.10
1534;DHT22;760;48.822;9.304;2023-05-15T08:24:39;29.50;77.10
1534;DHT22;760;48.822;9.304;2023-05-15T08:27:05;29.50;77.80
1534;DHT22;760;48.822;9.304;2023-05-15T08:29:32;29.80;78.60
1534;DHT22;760;48.822;9.304;2023-05-15T08:31:57;29.70;77.00
1534;DHT22;760;48.822;9.304;2023-05-15T08:34:24;29.40;76.00
1534;DHT22;760;48.822;9.304;2023-05-15T08:36:50;28.40;76.40
1534;DHT22;760;48.822;9.304;2023-05-15T08:39:16;27.90;80.90
1534;DHT22;760;48.822;9.304;2023-05-15T08:44:17;29.10;79.20
1534;DHT22;760;48.822;9.304;2023-05-15T08:46:44;29.70;77.70
1534;DHT22;760;48.822;9.304;2023-05-15T08:52:14;30.30;76.60
1534;DHT22;760;48.822;9.304;2023-05-15T08:54:40;30.70;74.70
1534;DHT22;760;48.822;9.304;2023-05-15T08:57:08;31.30;72.90
1534;DHT22;760;48.822;9.304;2023-05-15T08:59:34;31.70;70.70
1534;DHT22;760;48.822;9.304;2023-05-15T09:02:00;32.00;70.60
1534;DHT22;760;48.822;9.304;2023-05-15T09:04:26;32.30;66.30
1534;DHT22;760;48.822;9.304;2023-05-15T09:06:53;32.30;68.80
1534;DHT22;760;48.822;9.304;2023-05-15T09:09:19;31.60;66.90
1534;DHT22;760;48.822;9.304;2023-05-15T09:11:47;30.30;68.10
1534;DHT22;760;48.822;9.304;2023-05-15T09:14:13;29.30;70.20
1534;DHT22;760;48.822;9.304;2023-05-15T09:16:38;28.30;72.10
1534;DHT22;760;48.822;9.304;2023-05-15T09:19:05;27.20;75.40
1534;DHT22;760;48.822;9.304;2023-05-15T09:21:31;27.10;76.70
1534;DHT22;760;48.822;9.304;2023-05-15T09:24:23;27.20;76.00
1534;DHT22;760;48.822;9.304;2023-05-15T09:27:05;26.40;77.00
1534;DHT22;760;48.822;9.304;2023-05-15T09:29:32;26.40;78.20
1534;DHT22;760;48.822;9.304;2023-05-15T09:32:11;26.30;81.80
1534;DHT22;760;48.822;9.304;2023-05-15T09:34:39;26.40;80.20
1534;DHT22;760;48.822;9.304;2023-05-15T09:37:07;26.00;80.60
1534;DHT22;760;48.822;9.304;2023-05-15T09:39:40;25.90;81.10
1534;DHT22;760;48.822;9.304;2023-05-15T09:42:11;26.40;79.80
1534;DHT22;760;48.822;9.304;2023-05-15T09:44:44;27.00;81.10
1534;DHT22;760;48.822;9.304;2023-05-15T09:47:13;27.70;78.40
1534;DHT22;760;48.822;9.304;2023-05-15T09:49:43;27.70;77.50
1534;DHT22;760;48.822;9.304;2023-05-15T09:52:09;27.20;78.00
1534;DHT22;760;48.822;9.304;2023-05-15T09:54:36;26.40;78.90
1534;DHT22;760;48.822;9.304;2023-05-15T09:57:09;25.80;80.80
1534;DHT22;760;48.822;9.304;2023-05-15T09:59:45;25.40;84.70
1534;DHT22;760;48.822;9.304;2023-05-15T10:02:25;25.30;82.90
1534;DHT22;760;48.822;9.304;2023-05-15T10:04:57;25.40;80.80
1534;DHT22;760;48.822;9.304;2023-05-15T10:07:30;25.20;81.90
1534;DHT22;760;48.822;9.304;2023-05-15T10:09:56;25.00;81.70
1534;DHT22;760;48.822;9.304;2023-05-15T10:12:22;25.10;79.20
1534;DHT22;760;48.822;9.304;2023-05-15T10:14:50;25.00;81.60
1534;DHT22;760;48.822;9.304;2023-05-15T10:17:18;24.80;84.90
1534;DHT22;760;48.822;9.304;2023-05-15T10:19:46;24.30;85.20
1534;DHT22;760;48.822;9.304;2023-05-15T10:22:12;23.80;86.80
1534;DHT22;760;48.822;9.304;2023-05-15T10:24:40;24.20;86.20
1534;DHT22;760;48.822;9.304;2023-05-15T10:27:08;25.10;86.30
1534;DHT22;760;48.822;9.304;2023-05-15T10:29:35;26.00;82.20
1534;DHT22;760;48.822;9.304;2023-05-15T10:32:03;26.20;87.20
1534;DHT22;760;48.822;9.304;2023-05-15T10:34:29;26.00;89.20
1534;DHT22;760;48.822;9.304;2023-05-15T10:36:56;25.40;87.90
1534;DHT22;760;48.822;9.304;2023-05-15T10:39:22;24.60;89.70
1534;DHT22;760;48.822;9.304;2023-05-15T10:41:49;24.00;91.00
1534;DHT22;760;48.822;9.304;2023-05-15T10:44:15;24.00;87.50
1534;DHT22;760;48.822;9.304;2023-05-15T10:46:42;24.20;85.50
1534;DHT22;760;48.822;9.304;2023-05-15T10:49:08;24.80;89.30
1534;DHT22;760;48.822;9.304;2023-05-15T10:51:36;25.40;82.90
1534;DHT22;760;48.822;9.304;2023-05-15T10:54:03;25.90;79.60
1534;DHT22;760;48.822;9.304;2023-05-15T10:56:31;26.40;79.20
1534;DHT22;760;48.822;9.304;2023-05-15T10:58:57;26.10;79.50
1534;DHT22;760;48.822;9.304;2023-05-15T11:01:29;25.50;79.50
1534;DHT22;760;48.822;9.304;2023-05-15T11:04:15;25.10;80.30
1534;DHT22;760;48.822;9.304;2023-05-15T11:06:46;25.40;80.50
1534;DHT22;760;48.822;9.304;2023-05-15T11:11:57;25.10;78.10
1534;DHT22;760;48.822;9.304;2023-05-15T11:14:33;24.60;76.00
1534;DHT22;760;48.822;9.304;2023-05-15T11:17:01;24.00;76.00
1534;DHT22;760;48.822;9.304;2023-05-15T11:24:53;22.80;82.80
1534;DHT22;760;48.822;9.304;2023-05-15T11:27:24;22.60;85.10
1534;DHT22;760;48.822;9.304;2023-05-15T11:30:16;22.30;86.10
1534;DHT22;760;48.822;9.304;2023-05-15T11:33:09;21.90;88.60
1534;DHT22;760;48.822;9.304;2023-05-15T11:35:47;21.70;89.60
1534;DHT22;760;48.822;9.304;2023-05-15T11:38:14;21.40;91.60
1534;DHT22;760;48.822;9.304;2023-05-15T11:40:50;21.40;91.40
1534;DHT22;760;48.822;9.304;2023-05-15T11:43:26;21.50;91.40
1534;DHT22;760;48.822;9.304;2023-05-15T11:45:56;21.60;90.70
1534;DHT22;760;48.822;9.304;2023-05-15T11:48:24;21.80;90.60
1534;DHT22;760;48.822;9.304;2023-05-15T11:50:50;21.90;90.20
1534;DHT22;760;48.822;9.304;2023-05-15T11:53:18;22.00;90.20
1534;DHT22;760;48.822;9.304;2023-05-15T11:55:44;21.90;88.50
1534;DHT22;760;48.822;9.304;2023-05-15T11:58:17;21.80;89.00
1534;DHT22;760;48.822;9.304;2023-05-15T12:00:45;21.70;89.80
1534;DHT22;760;48.822;9.304;2023-05-15T12:03:21;21.50;84.30
1534;DHT22;760;48.822;9.304;2023-05-15T12:05:48;21.40;86.90
1534;DHT22;760;48.822;9.304;2023-05-15T12:08:13;21.30;85.90
1534;DHT22;760;48.822;9.304;2023-05-15T12:10:43;21.30;87.90
1534;DHT22;760;48.822;9.304;2023-05-15T12:13:10;21.50;90.10
1534;DHT22;760;48.822;9.304;2023-05-15T12:15:41;21.70;84.70
1534;DHT22;760;48.822;9.304;2023-05-15T12:18:08;21.90;81.80
1534;DHT22;760;48.822;9.304;2023-05-15T12:20:35;21.90;81.80
1534;DHT22;760;48.822;9.304;2023-05-15T12:23:02;21.60;78.90
1534;DHT22;760;48.822;9.304;2023-05-15T12:25:28;21.10;80.00
1534;DHT22;760;48.822;9.304;2023-05-15T12:27:54;20.60;80.70
1534;DHT22;760;48.822;9.304;2023-05-15T12:30:20;20.10;81.80
1534;DHT22;760;48.822;9.304;2023-05-15T12:32:46;19.80;83.30
1534;DHT22;760;48.822;9.304;2023-05-15T12:35:12;19.50;83.90
1534;DHT22;760;48.822;9.304;2023-05-15T12:37:38;19.30;84.30
1534;DHT22;760;48.822;9.304;2023-05-15T12:40:05;19.10;85.10
1534;DHT22;760;48.822;9.304;2023-05-15T12:42:41;19.00;85.80
1534;DHT22;760;48.822;9.304;2023-05-15T12:45:14;18.80;86.50
1534;DHT22;760;48.822;9.304;2023-05-15T12:47:41;18.70;87.30
1534;DHT22;760;48.822;9.304;2023-05-15T12:50:18;18.50;88.20
1534;DHT22;760;48.822;9.304;2023-05-15T12:52:52;18.50;88.40
1534;DHT22;760;48.822;9.304;2023-05-15T12:55:25;18.50;85.90
1534;DHT22;760;48.822;9.304;2023-05-15T12:57:52;18.50;87.40
1534;DHT22;760;48.822;9.304;2023-05-15T13:00:19;18.50;86.70
1534;DHT22;760;48.822;9.304;2023-05-15T13:02:48;18.50;86.00
1534;DHT22;760;48.822;9.304;2023-05-15T13:05:14;18.50;85.60
1534;DHT22;760;48.822;9.304;2023-05-15T13:07:41;18.50;86.60
1534;DHT22;760;48.822;9.304;2023-05-15T13:10:08;18.60;87.40
1534;DHT22;760;48.822;9.304;2023-05-15T13:12:44;18.70;88.10
1534;DHT22;760;48.822;9.304;2023-05-15T13:18:07;18.90;89.80
1534;DHT22;760;48.822;9.304;2023-05-15T13:20:36;18.90;89.50
1534;DHT22;760;48.822;9.304;2023-05-15T13:23:02;19.00;89.20
1534;DHT22;760;48.822;9.304;2023-05-15T13:25:27;19.00;90.50
1534;DHT22;760;48.822;9.304;2023-05-15T13:27:58;19.10;90.80
1534;DHT22;760;48.822;9.304;2023-05-15T13:30:25;19.30;90.50
1534;DHT22;760;48.822;9.304;2023-05-15T13:32:51;19.60;90.00
1534;DHT22;760;48.822;9.304;2023-05-15T13:35:17;19.80;89.20
1534;DHT22;760;48.822;9.304;2023-05-15T13:37:42;20.00;90.70
1534;DHT22;760;48.822;9.304;2023-05-15T13:40:09;20.20;91.30
1534;DHT22;760;48.822;9.304;2023-05-15T13:42:39;20.30;88.60
1534;DHT22;760;48.822;9.304;2023-05-15T13:45:07;20.40;89.20
1534;DHT22;760;48.822;9.304;2023-05-15T13:47:33;20.40;89.60
1534;DHT22;760;48.822;9.304;2023-05-15T13:49:58;20.40;87.60
1534;DHT22;760;48.822;9.304;2023-05-15T13:52:25;20.20;85.50
1534;DHT22;760;48.822;9.304;2023-05-15T13:54:52;20.20;86.20
1534;DHT22;760;48.822;9.304;2023-05-15T13:57:18;20.10;84.40
1534;DHT22;760;48.822;9.304;2023-05-15T13:59:43;20.10;84.40
1534;DHT22;760;48.822;9.304;2023-05-15T14:02:09;20.20;84.70
1534;DHT22;760;48.822;9.304;2023-05-15T14:04:35;20.30;84.60
1534;DHT22;760;48.822;9.304;2023-05-15T14:07:00;20.40;88.70
1534;DHT22;760;48.822;9.304;2023-05-15T14:09:26;20.50;85.50
1534;DHT22;760;48.822;9.304;2023-05-15T14:11:51;20.60;88.40
1534;DHT22;760;48.822;9.304;2023-05-15T14:14:17;20.70;86.30
1534;DHT22;760;48.822;9.304;2023-05-15T14:16:42;20.90;87.90
1534;DHT22;760;48.822;9.304;2023-05-15T14:19:08;20.90;83.80
1534;DHT22;760;48.822;9.304;2023-05-15T14:21:34;21.10;85.70
1534;DHT22;760;48.822;9.304;2023-05-15T14:23:59;21.20;86.40
1534;DHT22;760;48.822;9.304;2023-05-15T14:26:25;21.30;87.00
1534;DHT22;760;48.822;9.304;2023-05-15T14:28:51;21.30;83.10
1534;DHT22;760;48.822;9.304;2023-05-15T14:31:16;21.10;83.50
1534;DHT22;760;48.822;9.304;2023-05-15T14:33:42;20.90;84.80
1534;DHT22;760;48.822;9.304;2023-05-15T14:36:07;20.70;87.10
1534;DHT22;760;48.822;9.304;2023-05-15T14:38:33;20.60;87.50
1534;DHT22;760;48.822;9.304;2023-05-15T14:40:58;20.40;87.90
1534;DHT22;760;48.822;9.304;2023-05-15T14:43:24;20.30;84.50
1534;DHT22;760;48.822;9.304;2023-05-15T14:45:50;20.30;83.40
1534;DHT22;760;48.822;9.304;2023-05-15T14:48:16;20.10;83.80
1534;DHT22;760;48.822;9.304;2023-05-15T14:50:42;20.00;84.60
1534;DHT22;760;48.822;9.304;2023-05-15T14:53:08;19.90;85.80
1534;DHT22;760;48.822;9.304;2023-05-15T14:55:33;19.90;86.70
1534;DHT22;760;48.822;9.304;2023-05-15T14:57:59;19.80;88.20
1534;DHT22;760;48.822;9.304;2023-05-15T15:00:24;19.80;89.70
1534;DHT22;760;48.822;9.304;2023-05-15T15:02:50;19.70;89.70
1534;DHT22;760;48.822;9.304;2023-05-15T15:05:16;19.60;88.60
1534;DHT22;760;48.822;9.304;2023-05-15T15:10:22;19.60;89.40
1534;DHT22;760;48.822;9.304;2023-05-15T15:12:49;19.40;90.50
1534;DHT22;760;48.822;9.304;2023-05-15T15:15:15;19.20;91.80
1534;DHT22;760;48.822;9.304;2023-05-15T15:17:41;19.00;92.10
1534;DHT22;760;48.822;9.304;2023-05-15T15:20:07;18.90;92.70
1534;DHT22;760;48.822;9.304;2023-05-15T15:22:33;18.70;93.30
1534;DHT22;760;48.822;9.304;2023-05-15T15:24:58;18.50;93.50
1534;DHT22;760;48.822;9.304;2023-05-15T15:27:24;18.40;95.10
1534;DHT22;760;48.822;9.304;2023-05-15T15:29:49;17.60;97.90
1534;DHT22;760;48.822;9.304;2023-05-15T15:32:15;17.00;99.90
1534;DHT22;760;48.822;9.304;2023-05-15T15:34:40;16.40;99.90
1534;DHT22;760;48.822;9.304;2023-05-15T15:37:06;15.80;99.90
1534;DHT22;760;48.822;9.304;2023-05-15T15:39:32;15.50;99.90
1534;DHT22;760;48.822;9.304;2023-05-15T15:41:57;15.10;99.90
1534;DHT22;760;48.822;9.304;2023-05-15T15:44:23;14.80;99.90
1534;DHT22;760;48.822;9.304;2023-05-15T15:46:48;14.60;99.90
1534;DHT22;760;48.822;9.304;2023-05-15T15:49:14;14.50;99.90
1534;DHT22;760;48.822;9.304;2023-05-15T15:51:39;14.50;99.90
1534;DHT22;760;48.822;9.304;2023-05-15T15:54:05;14.40;99.90
1534;DHT22;760;48.822;9.304;2023-05-15T15:56:31;14.40;99.90
1534;DHT22;760;48.822;9.304;2023-05-15T15:58:57;14.40;99.90
1534;DHT22;760;48.822;9.304;2023-05-15T16:01:22;14.30;99.90
1534;DHT22;760;48.822;9.304;2023-05-15T16:03:48;14.30;99.90
1534;DHT22;760;48.822;9.304;2023-05-15T16:06:14;14.30;99.90
1534;DHT22;760;48.822;9.304;2023-05-15T16:08:39;14.40;99.90
1534;DHT22;760;48.822;9.304;2023-05-15T16:11:05;14.40;99.90
1534;DHT22;760;48.822;9.304;2023-05-15T16:13:31;14.30;99.90
1534;DHT22;760;48.822;9.304;2023-05-15T16:15:56;14.40;99.90
1534;DHT22;760;48.822;9.304;2023-05-15T16:18:22;14.40;99.90
1534;DHT22;760;48.822;9.304;2023-05-15T16:20:47;14.50;99.90
1534;DHT22;760;48.822;9.304;2023-05-15T16:23:13;14.60;99.90
1534;DHT22;760;48.822;9.304;2023-05-15T16:25:41;14.60;99.90
1534;DHT22;760;48.822;9.304;2023-05-15T16:28:07;14.70;99.90
1534;DHT22;760;48.822;9.304;2023-05-15T16:30:32;14.80;99.90
1534;DHT22;760;48.822;9.304;2023-05-15T16:32:58;14.80;99.90
1534;DHT22;760;48.822;9.304;2023-05-15T16:35:24;14.90;99.90
1534;DHT22;760;48.822;9.304;2023-05-15T16:37:50;14.90;99.90
1534;DHT22;760;48.822;9.304;2023-05-15T16:40:15;14.90;99.90
1534;DHT22;760;48.822;9.304;2023-05-15T16:42:41;14.90;99.90
1534;DHT22;760;48.822;9.304;2023-05-15T16:45:07;14.80;99.90
1534;DHT22;760;48.822;9.304;2023-05-15T16:47:36;14.80;99.90
1534;DHT22;760;48.822;9.304;2023-05-15T16:50:02;14.80;99.90
1534;DHT22;760;48.822;9.304;2023-05-15T16:52:28;14.70;99.90
1534;DHT22;760;48.822;9.304;2023-05-15T16:54:54;14.70;99.90
1534;DHT22;760;48.822;9.304;2023-05-15T16:57:19;14.70;99.90
1534;DHT22;760;48.822;9.304;2023-05-15T16:59:46;14.70;99.90
1534;DHT22;760;48.822;9.304;2023-05-15T17:02:12;14.80;99.90
1534;DHT22;760;48.822;9.304;2023-05-15T17:04:37;14.90;99.90
1534;DHT22;760;48.822;9.304;2023-05-15T17:07:04;14.90;99.90
1534;DHT22;760;48.822;9.304;2023-05-15T17:09:29;14.90;99.90
1534;DHT22;760;48.822;9.304;2023-05-15T17:11:55;15.00;99.90
1534;DHT22;760;48.822;9.304;2023-05-15T17:14:20;15.10;99.90
1534;DHT22;760;48.822;9.304;2023-05-15T17:16:46;15.20;99.90
1534;DHT22;760;48.822;9.304;2023-05-15T17:19:12;15.20;99.90
1534;DHT22;760;48.822;9.304;2023-05-15T17:21:38;15.30;99.90
1534;DHT22;760;48.822;9.304;2023-05-15T17:24:04;15.40;99.90
1534;DHT22;760;48.822;9.304;2023-05-15T17:26:29;15.50;99.90
1534;DHT22;760;48.822;9.304;2023-05-15T17:28:55;15.50;99.90
1534;DHT22;760;48.822;9.304;2023-05-15T17:31:20;15.60;99.90
1534;DHT22;760;48.822;9.304;2023-05-15T17:33:46;15.70;99.90
1534;DHT22;760;48.822;9.304;2023-05-15T17:36:12;15.70;99.90
1534;DHT22;760;48.822;9.304;2023-05-15T17:38:38;15.80;99.90
1534;DHT22;760;48.822;9.304;2023-05-15T17:41:05;15.90;99.90
1534;DHT22;760;48.822;9.304;2023-05-15T17:43:31;15.90;99.90
1534;DHT22;760;48.822;9.304;2023-05-15T17:45:56;16.00;99.90
1534;DHT22;760;48.822;9.304;2023-05-15T17:48:25;16.10;99.90
1534;DHT22;760;48.822;9.304;2023-05-15T17:50:50;16.10;99.90
1534;DHT22;760;48.822;9.304;2023-05-15T17:53:16;16.10;99.90
1534;DHT22;760;48.822;9.304;2023-05-15T17:55:42;16.20;99.90
1534;DHT22;760;48.822;9.304;2023-05-15T17:58:08;16.20;99.90
1534;DHT22;760;48.822;9.304;2023-05-15T18:00:33;16.10;99.90
1534;DHT22;760;48.822;9.304;2023-05-15T18:02:59;16.00;99.90
1534;DHT22;760;48.822;9.304;2023-05-15T18:05:26;15.90;99.90
1534;DHT22;760;48.822;9.304;2023-05-15T18:07:52;15.90;99.90
1534;DHT22;760;48.822;9.304;2023-05-15T18:10:20;15.80;99.90
1534;DHT22;760;48.822;9.304;2023-05-15T18:12:46;15.70;99.90
1534;DHT22;760;48.822;9.304;2023-05-15T18:15:11;15.60;99.90
1534;DHT22;760;48.822;9.304;2023-05-15T18:17:37;15.40;99.90
1534;DHT22;760;48.822;9.304;2023-05-15T18:20:03;15.30;99.90
1534;DHT22;760;48.822;9.304;2023-05-15T18:22:30;15.20;99.90
1534;DHT22;760;48.822;9.304;2023-05-15T18:24:55;15.10;99.90
1534;DHT22;760;48.822;9.304;2023-05-15T18:27:21;15.00;99.90
1534;DHT22;760;48.822;9.304;2023-05-15T18:29:47;14.90;99.90
1534;DHT22;760;48.822;9.304;2023-05-15T18:32:12;14.70;99.90
1534;DHT22;760;48.822;9.304;2023-05-15T18:34:38;14.60;99.90
1534;DHT22;760;48.822;9.304;2023-05-15T18:37:04;14.50;99.90
1534;DHT22;760;48.822;9.304;2023-05-15T18:39:29;14.40;99.90
1534;DHT22;760;48.822;9.304;2023-05-15T18:41:55;14.30;99.90
1534;DHT22;760;48.822;9.304;2023-05-15T18:44:20;14.30;99.90
1534;DHT22;760;48.822;9.304;2023-05-15T18:46:46;14.20;99.90
1534;DHT22;760;48.822;9.304;2023-05-15T18:49:12;14.10;99.90
1534;DHT22;760;48.822;9.304;2023-05-15T18:51:37;14.10;99.90
1534;DHT22;760;48.822;9.304;2023-05-15T18:54:03;14.00;99.90
1534;DHT22;760;48.822;9.304;2023-05-15T18:56:28;13.90;99.90
1534;DHT22;760;48.822;9.304;2023-05-15T18:58:54;13.90;99.90
1534;DHT22;760;48.822;9.304;2023-05-15T19:01:19;13.80;99.90
1534;DHT22;760;48.822;9.304;2023-05-15T19:03:46;13.80;99.90
1534;DHT22;760;48.822;9.304;2023-05-15T19:06:11;13.80;99.90
1534;DHT22;760;48.822;9.304;2023-05-15T19:08:44;13.80;99.90
1534;DHT22;760;48.822;9.304;2023-05-15T19:11:10;13.70;99.90
1534;DHT22;760;48.822;9.304;2023-05-15T19:13:35;13.70;99.90
1534;DHT22;760;48.822;9.304;2023-05-15T19:16:01;13.70;99.90
1534;DHT22;760;48.822;9.304;2023-05-15T19:18:28;13.60;99.90
1534;DHT22;760;48.822;9.304;2023-05-15T19:20:54;13.60;99.90
1534;DHT22;760;48.822;9.304;2023-05-15T19:23:21;13.60;99.90
1534;DHT22;760;48.822;9.304;2023-05-15T19:25:46;13.60;99.90
1534;DHT22;760;48.822;9.304;2023-05-15T19:28:12;13.50;99.90
1534;DHT22;760;48.822;9.304;2023-05-15T19:30:39;13.50;99.90
1534;DHT22;760;48.822;9.304;2023-05-15T19:33:07;13.40;99.90
1534;DHT22;760;48.822;9.304;2023-05-15T19:35:32;13.40;99.90
1534;DHT22;760;48.822;9.304;2023-05-15T19:37:58;13.40;99.90
1534;DHT22;760;48.822;9.304;2023-05-15T19:40:23;13.30;99.90
1534;DHT22;760;48.822;9.304;2023-05-15T19:42:49;13.30;99.90
1534;DHT22;760;48.822;9.304;2023-05-15T19:45:15;13.20;99.90
1534;DHT22;760;48.822;9.304;2023-05-15T19:47:40;13.20;99.90
1534;DHT22;760;48.822;9.304;2023-05-15T19:50:07;13.20;99.90
1534;DHT22;760;48.822;9.304;2023-05-15T19:52:33;13.20;99.90
1534;DHT22;760;48.822;9.304;2023-05-15T19:54:59;13.20;99.90
1534;DHT22;760;48.822;9.304;2023-05-15T19:57:24;13.20;99.90
1534;DHT22;760;48.822;9.304;2023-05-15T19:59:50;13.20;99.90
1534;DHT22;760;48.822;9.304;2023-05-15T20:02:15;13.10;99.90
1534;DHT22;760;48.822;9.304;2023-05-15T20:04:41;13.10;99.90
1534;DHT22;760;48.822;9.304;2023-05-15T20:07:07;13.10;99.90
1534;DHT22;760;48.822;9.304;2023-05-15T20:09:32;13.10;99.90
1534;DHT22;760;48.822;9.304;2023-05-15T20:11:58;13.10;99.90
1534;DHT22;760;48.822;9.304;2023-05-15T20:14:23;13.00;99.90
1534;DHT22;760;48.822;9.304;2023-05-15T20:16:49;13.00;99.90
1534;DHT22;760;48.822;9.304;2023-05-15T20:19:15;13.00;99.90
1534;DHT22;760;48.822;9.304;2023-05-15T20:21:41;13.00;99.90
1534;DHT22;760;48.822;9.304;2023-05-15T20:24:07;12.90;99.90
1534;DHT22;760;48.822;9.304;2023-05-15T20:26:33;12.90;99.90
1534;DHT22;760;48.822;9.304;2023-05-15T20:29:00;12.90;99.90
1534;DHT22;760;48.822;9.304;2023-05-15T20:31:26;12.80;99.90
1534;DHT22;760;48.822;9.304;2023-05-15T20:33:52;12.80;99.90
1534;DHT22;760;48.822;9.304;2023-05-15T20:36:18;12.80;99.90